Time;durP1;ratioP1;P1;durP2;ratioP2;P2;SDS_P1;SDS_P2;PMS_P1;PMS_P2;Temp;Humidity;BMP_temperature;BMP_pressure;BME280_temperature;BME280_humidity;BME280_pressure;Samples;Min_cycle;Max_cycle;Signal;HPM_P1;HPM_P2
2022/09/02 00:01:00;;;;;;;58.97;55.80;;;23.50;68.50;;;;;;5034576;28;20033;-78
2022/09/02 00:03:27;;;;;;;79.32;74.82;;;23.50;69.10;;;;;;5035898;28;20132;-77
2022/09/02 00:05:53;;;;;;;111.32;105.50;;;23.50;70.00;;;;;;5051476;28;20048;-77
2022/09/02 00:08:19;;;;;;;127.40;120.75;;;23.50;70.00;;;;;;5034266;28;20040;-77
2022/09/02 00:10:45;;;;;;;120.90;114.55;;;23.40;71.20;;;;;;5051420;28;20029;-77
2022/09/02 00:13:13;;;;;;;110.03;103.95;;;23.50;71.60;;;;;;5051332;28;20377;-77
2022/09/02 00:15:40;;;;;;;122.85;116.47;;;23.40;71.60;;;;;;5034342;28;20025;-77
2022/09/02 00:18:07;;;;;;;105.63;99.78;;;23.30;71.90;;;;;;5034541;28;20056;-77
2022/09/02 00:20:33;;;;;;;92.32;86.95;;;23.30;73.40;;;;;;5049943;28;20028;-77
2022/09/02 00:23:00;;;;;;;75.20;70.60;;;23.00;75.40;;;;;;5051341;28;20037;-77
2022/09/02 00:25:26;;;;;;;58.05;54.30;;;22.90;75.40;;;;;;5051105;28;20025;-77
2022/09/02 00:27:52;;;;;;;47.92;44.10;;;22.50;77.60;;;;;;5051021;28;20458;-77
2022/09/02 00:30:18;;;;;;;43.20;39.42;;;22.40;77.40;;;;;;5050666;28;20036;-77
2022/09/02 00:32:44;;;;;;;34.40;31.75;;;22.10;79.50;;;;;;5051379;28;20037;-77
2022/09/02 00:35:10;;;;;;;40.25;37.33;;;21.80;81.40;;;;;;5051821;28;20135;-77
2022/09/02 00:37:36;;;;;;;43.00;39.80;;;21.80;80.90;;;;;;5050772;28;20066;-77
2022/09/02 00:40:04;;;;;;;42.47;38.92;;;21.80;81.20;;;;;;5029733;28;20508;-77
2022/09/02 00:42:30;;;;;;;42.28;39.28;;;21.90;80.20;;;;;;5047551;28;20030;-77
2022/09/02 00:44:56;;;;;;;39.17;36.00;;;22.00;79.50;;;;;;5020492;28;20045;-77
2022/09/02 00:47:22;;;;;;;43.42;40.22;;;22.20;79.40;;;;;;5038545;28;20538;-77
2022/09/02 00:49:50;;;;;;;41.67;38.88;;;22.20;80.60;;;;;;5030635;28;20040;-77
2022/09/02 00:52:19;;;;;;;39.50;36.88;;;22.10;80.40;;;;;;5030817;28;20021;-77
2022/09/02 00:55:11;;;;;;;40.42;37.60;;;22.20;79.50;;;;;;5030708;28;20028;-77
2022/09/02 00:57:40;;;;;;;36.00;33.20;;;22.30;80.00;;;;;;5028288;28;20502;-77
2022/09/02 01:00:17;;;;;;;36.92;34.00;;;22.40;79.50;;;;;;5014405;28;20041;-78
2022/09/02 01:02:47;;;;;;;35.67;33.03;;;22.50;79.40;;;;;;5034267;28;20052;-77
2022/09/02 01:05:14;;;;;;;37.55;34.00;;;22.50;78.90;;;;;;5017619;28;20401;-77
2022/09/02 01:07:40;;;;;;;36.00;33.30;;;22.50;78.70;;;;;;5050201;28;20112;-78
2022/09/02 01:10:09;;;;;;;35.28;32.47;;;22.50;78.90;;;;;;5050366;28;20025;-78
2022/09/02 01:12:35;;;;;;;36.90;34.10;;;22.50;78.90;;;;;;5051540;28;20025;-77
2022/09/02 01:15:03;;;;;;;37.40;34.95;;;22.50;78.90;;;;;;5033168;28;20040;-77
2022/09/02 01:17:30;;;;;;;37.08;33.95;;;22.60;78.90;;;;;;5032709;28;20518;-77
2022/09/02 01:19:58;;;;;;;36.72;34.10;;;22.60;78.60;;;;;;5016987;28;20045;-77
2022/09/02 01:22:28;;;;;;;37.97;35.28;;;22.50;78.70;;;;;;5033700;28;20024;-78
2022/09/02 01:24:56;;;;;;;38.22;35.70;;;22.60;78.90;;;;;;5017316;28;20041;-77
2022/09/02 01:27:22;;;;;;;36.00;33.42;;;22.60;79.00;;;;;;5033553;28;20032;-77
2022/09/02 01:29:56;;;;;;;38.88;36.03;;;22.60;78.60;;;;;;5049996;28;20044;-77
2022/09/02 01:32:23;;;;;;;36.13;33.60;;;22.50;79.40;;;;;;5030034;28;20445;-77
2022/09/02 01:34:49;;;;;;;35.53;32.85;;;22.50;78.90;;;;;;5013111;28;20037;-77
2022/09/02 01:37:15;;;;;;;34.78;32.13;;;22.50;79.50;;;;;;5029736;28;20021;-77
2022/09/02 01:39:41;;;;;;;36.65;33.92;;;22.60;79.90;;;;;;5013875;28;20368;-77
2022/09/02 01:42:08;;;;;;;36.10;33.22;;;22.40;80.50;;;;;;5046380;28;20372;-78
2022/09/02 01:44:36;;;;;;;33.88;31.23;;;22.00;82.30;;;;;;5035813;28;20491;-77
2022/09/02 01:47:02;;;;;;;33.03;30.55;;;22.00;81.60;;;;;;5025730;28;20025;-77
2022/09/02 01:49:29;;;;;;;32.58;30.25;;;22.00;82.30;;;;;;5013116;28;20034;-77
2022/09/02 01:51:55;;;;;;;35.15;32.60;;;22.00;82.60;;;;;;4996839;28;20052;-77
2022/09/02 01:54:21;;;;;;;35.85;33.35;;;22.00;81.30;;;;;;5013330;28;20028;-77
2022/09/02 01:56:47;;;;;;;33.90;31.50;;;22.10;81.30;;;;;;5013297;28;20082;-77
2022/09/02 01:59:16;;;;;;;33.35;31.13;;;22.20;81.40;;;;;;5029494;28;20042;-77
2022/09/02 02:01:43;;;;;;;35.65;33.08;;;22.20;80.80;;;;;;5006980;28;20026;-77
2022/09/02 02:04:10;;;;;;;33.45;30.55;;;22.20;80.50;;;;;;5029406;28;20060;-77
2022/09/02 02:06:42;;;;;;;35.40;32.80;;;22.20;80.20;;;;;;5030873;28;20033;-77
2022/09/02 02:09:09;;;;;;;35.05;32.55;;;22.20;80.00;;;;;;5045819;28;20060;-77
2022/09/02 02:11:35;;;;;;;42.40;39.30;;;22.20;80.00;;;;;;5029100;28;20037;-77
2022/09/02 02:14:01;;;;;;;39.60;36.72;;;22.20;80.40;;;;;;5012907;28;20502;-77
2022/09/02 02:16:27;;;;;;;34.38;31.90;;;22.30;80.40;;;;;;5035769;28;20033;-78
2022/09/02 02:18:54;;;;;;;41.45;38.58;;;22.30;80.00;;;;;;5046072;28;20045;-77
2022/09/02 02:21:20;;;;;;;35.88;33.10;;;22.20;80.30;;;;;;5046042;28;20435;-77
2022/09/02 02:23:46;;;;;;;38.05;35.42;;;22.30;80.30;;;;;;5046033;28;20501;-77
2022/09/02 02:26:12;;;;;;;36.05;33.45;;;22.30;79.80;;;;;;5045879;28;20399;-78
2022/09/02 02:28:38;;;;;;;37.05;34.65;;;22.30;80.10;;;;;;5045043;28;20037;-77
2022/09/02 02:31:04;;;;;;;36.40;33.75;;;22.30;80.20;;;;;;5038213;28;20044;-77
2022/09/02 02:33:31;;;;;;;36.55;33.70;;;22.30;80.20;;;;;;5049285;28;20479;-77
2022/09/02 02:35:57;;;;;;;37.00;34.38;;;22.30;79.90;;;;;;5016454;28;20044;-77
2022/09/02 02:38:23;;;;;;;37.33;34.78;;;22.30;79.70;;;;;;5032478;28;20032;-77
2022/09/02 02:40:52;;;;;;;38.03;35.17;;;22.30;79.70;;;;;;5041851;28;20035;-77
2022/09/02 02:43:19;;;;;;;35.55;32.90;;;22.30;79.80;;;;;;5049060;28;20028;-77
2022/09/02 02:45:45;;;;;;;36.00;33.22;;;22.20;79.80;;;;;;5068316;28;20559;-78
2022/09/02 02:48:12;;;;;;;38.28;35.20;;;22.20;79.70;;;;;;5050147;28;20048;-77
2022/09/02 02:50:38;;;;;;;36.67;34.17;;;22.20;79.70;;;;;;5048888;28;20033;-77
2022/09/02 02:53:04;;;;;;;38.15;35.65;;;22.20;79.60;;;;;;5048982;28;20036;-77
2022/09/02 02:55:30;;;;;;;34.15;31.70;;;22.20;79.50;;;;;;5015750;28;20482;-77
2022/09/02 02:57:57;;;;;;;34.25;31.67;;;22.10;79.60;;;;;;5031744;28;20048;-77
2022/09/02 03:00:25;;;;;;;39.60;36.67;;;22.10;79.40;;;;;;5048154;28;20037;-77
2022/09/02 03:02:59;;;;;;;33.85;31.52;;;22.10;79.20;;;;;;5049017;28;20025;-77
2022/09/02 03:05:25;;;;;;;34.22;31.88;;;22.10;79.10;;;;;;5032295;28;20049;-77
2022/09/02 03:07:51;;;;;;;35.28;32.65;;;22.00;79.60;;;;;;5048922;28;20389;-77
2022/09/02 03:10:18;;;;;;;37.33;34.60;;;22.00;79.40;;;;;;5048851;28;20466;-77
2022/09/02 03:12:47;;;;;;;37.63;34.72;;;22.00;79.60;;;;;;5048265;28;20051;-77
2022/09/02 03:15:15;;;;;;;35.65;32.88;;;22.00;79.40;;;;;;5048115;28;20462;-77
2022/09/02 03:17:43;;;;;;;34.92;32.00;;;22.00;79.60;;;;;;5032206;28;20052;-77
2022/09/02 03:20:09;;;;;;;34.05;31.63;;;22.00;79.60;;;;;;5048937;28;20033;-77
2022/09/02 03:22:37;;;;;;;35.72;33.10;;;22.00;79.70;;;;;;5031882;28;20040;-77
2022/09/02 03:25:05;;;;;;;35.83;33.33;;;22.00;79.90;;;;;;5048938;28;20024;-77
2022/09/02 03:27:33;;;;;;;34.45;31.95;;;22.00;79.80;;;;;;5049573;28;20438;-77
2022/09/02 03:29:59;;;;;;;38.13;35.38;;;21.90;80.10;;;;;;5053052;28;20461;-77
2022/09/02 03:32:26;;;;;;;34.53;32.08;;;21.90;80.00;;;;;;5051716;28;20029;-77
2022/09/02 03:34:53;;;;;;;35.45;32.83;;;21.90;80.30;;;;;;5052184;28;20040;-77
2022/09/02 03:37:19;;;;;;;36.67;33.72;;;21.90;80.30;;;;;;5052005;28;20020;-77
2022/09/02 03:39:45;;;;;;;38.40;35.67;;;21.80;81.00;;;;;;5052992;28;20397;-77
2022/09/02 03:42:12;;;;;;;38.65;35.78;;;21.70;81.40;;;;;;5052087;28;20025;-77
2022/09/02 03:44:40;;;;;;;37.72;34.92;;;21.50;82.70;;;;;;5060456;28;20033;-76
2022/09/02 03:47:06;;;;;;;36.90;33.67;;;21.30;83.20;;;;;;5058676;28;20377;-77
2022/09/02 03:49:33;;;;;;;40.80;37.40;;;21.10;84.50;;;;;;5035530;28;20478;-77
2022/09/02 03:51:59;;;;;;;43.35;39.88;;;21.10;84.10;;;;;;5035439;28;20025;-77
2022/09/02 03:54:25;;;;;;;41.88;38.88;;;21.20;83.60;;;;;;5051629;28;20359;-77
2022/09/02 03:56:51;;;;;;;42.65;39.40;;;21.30;83.30;;;;;;5033751;28;20544;-77
2022/09/02 03:59:17;;;;;;;40.90;37.95;;;21.40;83.00;;;;;;5018045;28;20060;-77
2022/09/02 04:01:44;;;;;;;42.35;38.78;;;21.20;84.30;;;;;;5034634;28;20044;-77
2022/09/02 04:04:10;;;;;;;40.47;37.40;;;21.10;84.20;;;;;;5051613;28;20462;-77
2022/09/02 04:06:36;;;;;;;38.83;35.35;;;21.10;84.90;;;;;;5051550;28;20036;-77
2022/09/02 04:09:02;;;;;;;41.13;37.78;;;20.90;85.30;;;;;;5051469;28;20033;-77
2022/09/02 04:11:28;;;;;;;38.70;35.33;;;20.90;85.50;;;;;;5051984;28;20484;-77
2022/09/02 04:13:55;;;;;;;41.63;38.58;;;20.80;86.40;;;;;;5051201;28;20421;-77
2022/09/02 04:16:27;;;;;;;38.17;35.05;;;20.90;86.40;;;;;;5034094;28;20040;-77
2022/09/02 04:18:56;;;;;;;38.15;35.08;;;20.80;86.70;;;;;;5035131;28;20064;-77
2022/09/02 04:21:23;;;;;;;42.40;38.97;;;20.80;87.00;;;;;;5051386;28;20021;-77
2022/09/02 04:23:51;;;;;;;35.40;32.60;;;20.90;86.60;;;;;;5051453;28;20033;-77
2022/09/02 04:26:17;;;;;;;39.55;36.45;;;21.00;85.80;;;;;;5051059;28;20044;-77
2022/09/02 04:28:44;;;;;;;35.08;32.40;;;21.00;85.00;;;;;;5050726;28;20033;-78
2022/09/02 04:31:15;;;;;;;36.13;32.85;;;21.10;84.70;;;;;;5050424;28;20036;-77
2022/09/02 04:33:41;;;;;;;;;;;21.10;84.10;;;;;;5051538;28;20033;-77
2022/09/02 04:36:08;;;;;;;33.22;30.30;;;21.10;84.40;;;;;;5051264;28;20376;-77
2022/09/02 04:38:34;;;;;;;31.70;29.10;;;21.10;83.80;;;;;;5033816;28;20401;-77
2022/09/02 04:41:05;;;;;;;30.52;28.15;;;21.00;84.30;;;;;;5050589;28;20044;-77
2022/09/02 04:43:31;;;;;;;34.70;31.98;;;21.00;84.70;;;;;;5050617;28;20505;-77
2022/09/02 04:45:57;;;;;;;33.78;30.77;;;21.00;84.10;;;;;;5057785;28;20036;-77
2022/09/02 04:48:23;;;;;;;33.50;30.85;;;21.00;83.50;;;;;;5030734;28;20414;-77
2022/09/02 04:50:49;;;;;;;31.10;28.50;;;21.00;83.10;;;;;;5014479;28;20029;-77
2022/09/02 04:53:15;;;;;;;34.13;31.17;;;21.00;83.20;;;;;;5030775;28;20036;-77
2022/09/02 04:55:42;;;;;;;32.88;30.08;;;21.10;83.10;;;;;;5030667;28;20030;-77
2022/09/02 04:58:08;;;;;;;35.88;32.42;;;21.20;82.90;;;;;;5031483;28;20034;-78
2022/09/02 05:00:37;;;;;;;35.55;32.55;;;21.20;82.60;;;;;;5030040;28;20041;-78
2022/09/02 05:03:04;;;;;;;36.25;33.35;;;21.20;82.40;;;;;;5029704;28;20036;-78
2022/09/02 05:05:31;;;;;;;36.30;33.30;;;21.20;82.20;;;;;;5030609;28;20303;-78
2022/09/02 05:07:57;;;;;;;34.58;31.80;;;21.20;82.10;;;;;;5032242;28;20025;-78
2022/09/02 05:10:23;;;;;;;37.00;33.55;;;21.10;82.20;;;;;;4997265;28;20042;-78
2022/09/02 05:12:51;;;;;;;35.00;31.88;;;21.10;82.20;;;;;;5013602;28;20041;-78
2022/09/02 05:15:17;;;;;;;33.33;30.63;;;21.20;82.50;;;;;;4996843;28;20034;-77
2022/09/02 05:17:45;;;;;;;32.40;29.10;;;21.20;83.20;;;;;;5030401;28;20033;-78
2022/09/02 05:20:11;;;;;;;35.35;32.50;;;21.00;84.50;;;;;;5030317;28;20068;-77
2022/09/02 05:22:37;;;;;;;31.70;29.08;;;20.80;84.30;;;;;;5013905;28;20025;-78
2022/09/02 05:25:06;;;;;;;34.58;31.95;;;20.70;83.90;;;;;;5013402;28;20033;-78
2022/09/02 05:27:32;;;;;;;35.05;32.25;;;20.60;84.40;;;;;;5022051;28;20057;-77
2022/09/02 05:29:58;;;;;;;35.10;32.10;;;20.70;84.00;;;;;;5017168;28;20037;-78
2022/09/02 05:32:26;;;;;;;35.00;31.92;;;20.80;83.80;;;;;;5016664;28;20056;-77
2022/09/02 05:34:53;;;;;;;34.47;31.42;;;20.90;83.40;;;;;;5050122;28;20386;-77
2022/09/02 05:37:19;;;;;;;33.42;30.40;;;21.00;83.30;;;;;;5033209;28;20041;-78
2022/09/02 05:39:46;;;;;;;32.35;29.75;;;21.10;83.50;;;;;;5032284;28;20237;-78
2022/09/02 05:42:12;;;;;;;35.28;32.17;;;21.10;83.30;;;;;;5033090;28;20037;-78
2022/09/02 05:44:38;;;;;;;32.85;30.15;;;21.10;82.90;;;;;;5051203;28;20028;-77
2022/09/02 05:47:04;;;;;;;32.85;30.25;;;21.20;82.90;;;;;;5056517;28;20029;-78
2022/09/02 05:49:30;;;;;;;32.05;29.35;;;21.20;82.80;;;;;;5016472;28;20442;-78
2022/09/02 05:51:58;;;;;;;33.53;30.42;;;21.20;82.60;;;;;;5032788;28;20032;-78
2022/09/02 05:54:29;;;;;;;31.60;28.95;;;21.20;82.80;;;;;;5032279;28;20045;-78
2022/09/02 05:56:57;;;;;;;30.60;27.83;;;21.10;83.00;;;;;;5016864;28;20037;-77
2022/09/02 05:59:25;;;;;;;31.55;28.75;;;21.00;83.40;;;;;;5049787;28;20036;-78
2022/09/02 06:01:52;;;;;;;30.15;27.17;;;20.90;83.80;;;;;;5032514;28;20037;-78
2022/09/02 06:04:18;;;;;;;34.05;31.08;;;20.80;84.50;;;;;;5049485;28;20036;-77
2022/09/02 06:06:44;;;;;;;34.05;31.27;;;20.70;84.60;;;;;;5049554;28;20021;-77
2022/09/02 06:09:15;;;;;;;33.42;30.52;;;20.50;85.80;;;;;;5032238;28;20037;-78
2022/09/02 06:11:44;;;;;;;29.83;27.00;;;20.50;86.10;;;;;;5049228;28;20462;-78
2022/09/02 06:14:12;;;;;;;29.05;26.48;;;20.50;86.80;;;;;;5033332;28;20048;-78
2022/09/02 06:16:39;;;;;;;29.23;26.75;;;20.70;86.50;;;;;;5048741;28;20033;-78
2022/09/02 06:19:05;;;;;;;32.60;30.13;;;20.80;86.30;;;;;;5049287;28;20029;-78
2022/09/02 06:21:32;;;;;;;36.38;33.45;;;20.80;86.30;;;;;;5032587;28;20041;-78
2022/09/02 06:23:58;;;;;;;40.20;37.40;;;20.80;85.60;;;;;;5048999;28;20025;-78
2022/09/02 06:26:25;;;;;;;34.13;31.50;;;20.80;86.00;;;;;;5032417;28;20390;-77
2022/09/02 06:28:51;;;;;;;31.60;29.25;;;20.70;86.30;;;;;;5013366;28;20049;-78
2022/09/02 06:31:19;;;;;;;33.75;31.30;;;20.80;86.80;;;;;;5037234;28;20056;-78
2022/09/02 06:33:46;;;;;;;31.05;28.58;;;20.90;85.60;;;;;;5032599;28;20025;-78
2022/09/02 06:36:14;;;;;;;31.88;29.65;;;21.10;85.20;;;;;;5032659;28;20037;-78
2022/09/02 06:38:42;;;;;;;33.05;30.52;;;21.30;84.20;;;;;;5016549;28;20414;-78
2022/09/02 06:41:18;;;;;;;34.72;32.17;;;21.50;83.90;;;;;;5013333;28;20052;-77
2022/09/02 06:43:44;;;;;;;36.95;34.45;;;21.60;83.40;;;;;;5036232;28;20488;-77
2022/09/02 06:46:18;;;;;;;43.28;40.03;;;21.90;82.50;;;;;;5050181;28;20523;-78
2022/09/02 06:48:44;;;;;;;35.63;33.08;;;22.00;81.00;;;;;;5016357;28;20048;-78
2022/09/02 06:51:21;;;;;;;40.63;37.78;;;21.90;81.80;;;;;;5049157;28;20041;-77
2022/09/02 06:53:47;;;;;;;38.45;35.92;;;21.80;81.00;;;;;;5032375;28;20470;-78
2022/09/02 06:56:13;;;;;;;43.63;40.53;;;21.90;82.00;;;;;;5048878;28;20029;-78
2022/09/02 06:58:40;;;;;;;44.83;41.97;;;22.20;81.50;;;;;;5049070;28;20036;-78
2022/09/02 07:01:06;;;;;;;41.88;38.90;;;22.20;80.50;;;;;;5048863;28;20520;-78
2022/09/02 07:06:18;;;;;;;52.30;49.00;;;22.50;79.30;;;;;;5055458;28;20044;-78
2022/09/02 07:08:44;;;;;;;47.65;44.55;;;22.50;78.80;;;;;;5052526;28;20827;-77
2022/09/02 07:11:16;;;;;;;50.28;46.83;;;22.50;78.60;;;;;;5052641;28;20041;-78
2022/09/02 07:13:42;;;;;;;51.70;48.50;;;22.60;78.70;;;;;;5052834;28;20373;-77
2022/09/02 07:16:08;;;;;;;60.05;56.50;;;22.80;78.50;;;;;;5035910;28;20032;-77
2022/09/02 07:18:35;;;;;;;52.30;48.65;;;22.90;77.80;;;;;;5035722;28;20033;-78
2022/09/02 07:21:01;;;;;;;49.67;46.50;;;22.90;76.80;;;;;;5035619;28;20040;-77
2022/09/02 07:23:27;;;;;;;51.70;48.40;;;23.00;76.80;;;;;;5052601;28;20033;-77
2022/09/02 07:25:54;;;;;;;50.75;47.33;;;23.00;76.30;;;;;;5035519;28;20501;-78
2022/09/02 07:28:21;;;;;;;50.25;46.90;;;23.00;76.60;;;;;;5052330;28;20029;-77
2022/09/02 07:30:47;;;;;;;47.80;44.67;;;23.00;76.30;;;;;;5051930;28;20025;-77
2022/09/02 07:33:14;;;;;;;48.28;44.40;;;23.00;76.10;;;;;;5052156;28;20482;-77
2022/09/02 07:35:41;;;;;;;46.70;43.47;;;22.90;76.50;;;;;;5051848;28;20028;-77
2022/09/02 07:38:07;;;;;;;41.30;38.42;;;22.80;76.20;;;;;;5035392;28;20033;-77
2022/09/02 07:40:35;;;;;;;42.47;39.33;;;22.40;76.90;;;;;;5035490;28;20497;-77
2022/09/02 07:43:04;;;;;;;40.65;37.80;;;22.40;77.50;;;;;;5069098;28;20039;-86
2022/09/02 07:45:30;;;;;;;44.65;41.63;;;22.50;77.40;;;;;;5023892;28;20029;-86
2022/09/02 07:47:57;;;;;;;41.35;38.47;;;22.60;76.10;;;;;;5039181;28;20044;-86
2022/09/02 07:50:25;;;;;;;42.22;39.25;;;22.60;76.80;;;;;;5071578;28;20043;-86
2022/09/02 07:52:56;;;;;;;40.17;37.08;;;22.60;77.00;;;;;;5055962;28;20516;-86
2022/09/02 07:55:22;;;;;;;44.45;41.35;;;22.70;77.20;;;;;;5055842;28;20051;-86
2022/09/02 07:57:49;;;;;;;44.08;40.85;;;22.60;77.10;;;;;;5055627;28;20024;-86
2022/09/02 08:00:15;;;;;;;43.28;39.97;;;22.70;77.20;;;;;;5071288;28;20477;-87
2022/09/02 08:02:43;;;;;;;44.63;41.17;;;22.70;76.70;;;;;;5055410;28;20035;-86
2022/09/02 08:05:09;;;;;;;53.05;49.55;;;22.80;77.60;;;;;;5054984;28;20481;-86
2022/09/02 08:07:35;;;;;;;57.13;53.53;;;22.90;77.40;;;;;;5055221;28;20055;-86
2022/09/02 08:10:02;;;;;;;48.45;45.28;;;22.90;76.30;;;;;;5071762;28;20357;-86
2022/09/02 08:12:28;;;;;;;51.33;48.00;;;22.90;76.30;;;;;;5054660;28;20027;-87
2022/09/02 08:14:57;;;;;;;51.53;48.25;;;22.90;76.30;;;;;;5072211;28;20033;-86
2022/09/02 08:17:23;;;;;;;47.35;44.25;;;23.00;75.50;;;;;;5071063;28;20040;-86
2022/09/02 08:19:49;;;;;;;45.42;42.33;;;22.90;76.20;;;;;;5054190;28;20045;-86
2022/09/02 08:22:15;;;;;;;42.90;39.67;;;22.80;76.60;;;;;;5054737;28;20032;-86
2022/09/02 08:24:41;;;;;;;42.47;39.45;;;22.70;77.00;;;;;;5072737;28;20024;-86
2022/09/02 08:27:08;;;;;;;42.13;39.17;;;22.70;76.90;;;;;;5049253;28;20032;-87
2022/09/02 08:29:34;;;;;;;43.10;40.05;;;22.80;76.70;;;;;;5052935;28;20037;-87
2022/09/02 08:32:00;;;;;;;44.70;41.58;;;22.90;76.30;;;;;;5052469;28;20040;-86
2022/09/02 08:34:27;;;;;;;50.17;46.38;;;22.90;76.10;;;;;;5050897;28;20493;-86
2022/09/02 08:36:53;;;;;;;56.85;52.95;;;23.00;75.70;;;;;;5051117;28;20040;-87
2022/09/02 08:39:20;;;;;;;61.67;57.85;;;23.00;75.80;;;;;;5034370;28;20470;-86
2022/09/02 08:42:12;;;;;;;64.32;59.97;;;23.20;75.60;;;;;;5051212;28;20048;-87
2022/09/02 08:44:39;;;;;;;61.17;57.05;;;23.20;74.80;;;;;;5070868;28;20029;-87
2022/09/02 08:47:11;;;;;;;62.03;57.90;;;23.40;74.60;;;;;;5060873;28;20541;-87
2022/09/02 08:49:42;;;;;;;65.90;61.72;;;23.40;74.40;;;;;;5034200;28;20045;-87
2022/09/02 08:52:08;;;;;;;71.40;66.63;;;23.40;74.90;;;;;;5034473;28;20064;-87
2022/09/02 08:54:42;;;;;;;68.80;64.55;;;23.60;74.90;;;;;;5034411;28;20025;-87
2022/09/02 08:57:09;;;;;;;67.43;63.28;;;23.60;73.00;;;;;;5033889;28;20411;-87
2022/09/02 08:59:35;;;;;;;64.50;60.58;;;23.80;73.50;;;;;;5017569;28;20044;-87
2022/09/02 09:02:23;;;;;;;66.03;61.90;;;23.90;73.60;;;;;;5033487;28;20500;-87
2022/09/02 09:05:08;;;;;;;65.30;61.15;;;24.10;72.00;;;;;;5033887;28;20395;-86
2022/09/02 09:07:40;;;;;;;68.20;63.92;;;24.30;72.20;;;;;;5051724;28;20036;-87
2022/09/02 09:10:12;;;;;;;65.68;61.53;;;24.40;71.40;;;;;;5050733;28;20045;-87
2022/09/02 09:12:41;;;;;;;57.15;53.10;;;24.50;71.20;;;;;;5051704;28;20028;-87
2022/09/02 09:15:17;;;;;;;60.38;56.28;;;24.50;71.10;;;;;;5050042;28;20521;-86
2022/09/02 09:17:47;;;;;;;66.80;62.58;;;24.40;71.30;;;;;;5050082;28;20462;-87
2022/09/02 09:20:22;;;;;;;57.03;53.67;;;24.60;71.50;;;;;;5050239;28;20041;-87
2022/09/02 09:22:48;;;;;;;60.55;56.78;;;24.70;68.10;;;;;;5050248;28;20029;-87
2022/09/02 09:25:15;;;;;;;66.20;62.30;;;24.70;68.80;;;;;;5050359;28;20033;-87
2022/09/02 09:27:41;;;;;;;67.05;62.90;;;24.60;69.60;;;;;;5050097;28;20036;-86
2022/09/02 09:30:09;;;;;;;72.60;68.40;;;24.60;69.90;;;;;;5051388;28;20033;-86
2022/09/02 09:32:37;;;;;;;55.90;52.53;;;24.60;69.80;;;;;;5033594;28;20021;-87
2022/09/02 09:35:08;;;;;;;50.78;47.53;;;24.80;69.00;;;;;;5033897;28;20385;-86
2022/09/02 09:37:41;;;;;;;50.80;47.53;;;24.70;66.90;;;;;;5017426;28;20051;-86
2022/09/02 09:40:21;;;;;;;53.53;50.17;;;24.60;68.10;;;;;;5051316;28;20040;-87
2022/09/02 09:43:01;;;;;;;52.80;49.38;;;24.70;69.10;;;;;;5049985;28;20363;-87
2022/09/02 09:45:27;;;;;;;48.87;45.80;;;24.90;67.80;;;;;;5055178;28;20500;-87
2022/09/02 09:48:15;;;;;;;56.75;53.25;;;24.90;65.70;;;;;;5054639;28;20041;-86
2022/09/02 09:50:45;;;;;;;56.42;53.03;;;24.90;66.80;;;;;;5049591;28;20041;-87
2022/09/02 09:53:21;;;;;;;56.90;53.43;;;25.00;66.80;;;;;;5033514;28;20363;-87
2022/09/02 09:55:52;;;;;;;48.83;45.78;;;25.10;67.20;;;;;;5033374;28;20274;-87
2022/09/02 09:58:18;;;;;;;44.55;41.80;;;25.10;66.90;;;;;;5033742;28;20037;-86
2022/09/02 10:00:44;;;;;;;34.28;32.00;;;25.30;67.10;;;;;;5032987;28;20037;-87
2022/09/02 10:03:19;;;;;;;31.45;29.30;;;25.50;64.90;;;;;;5050922;28;20029;-87
2022/09/02 10:05:45;;;;;;;35.42;33.22;;;25.50;64.40;;;;;;5050538;28;20021;-86
2022/09/02 10:08:15;;;;;;;40.80;38.40;;;25.30;64.50;;;;;;5051447;28;20481;-86
2022/09/02 10:10:56;;;;;;;42.13;39.28;;;25.40;65.50;;;;;;5050703;28;20044;-87
2022/09/02 10:13:24;;;;;;;44.58;41.97;;;25.50;65.70;;;;;;5032790;28;20033;-87
2022/09/02 10:15:53;;;;;;;29.95;27.95;;;25.70;65.20;;;;;;5032100;28;20033;-87
2022/09/02 10:18:37;;;;;;;29.38;27.38;;;25.80;62.60;;;;;;5049526;28;20033;-86
2022/09/02 10:21:03;;;;;;;26.90;25.05;;;25.70;61.20;;;;;;5049072;28;20051;-87
2022/09/02 10:23:40;;;;;;;32.55;30.42;;;25.60;61.70;;;;;;5049450;28;20037;-86
2022/09/02 10:26:10;;;;;;;31.90;29.90;;;25.60;62.10;;;;;;5049416;28;20085;-86
2022/09/02 10:29:12;;;;;;;44.15;41.63;;;25.10;61.80;;;;;;5050440;28;20052;-86
2022/09/02 10:31:43;;;;;;;64.53;60.88;;;24.80;63.60;;;;;;5034370;28;20033;-86
2022/09/02 10:34:43;;;;;;;69.72;65.90;;;24.70;64.60;;;;;;5049275;28;20021;-85
2022/09/02 10:37:25;;;;;;;106.07;100.13;;;24.60;65.50;;;;;;5051215;28;20031;-86
2022/09/02 10:40:12;;;;;;;91.50;86.45;;;24.70;65.90;;;;;;5053129;28;20109;-86
2022/09/02 10:42:47;;;;;;;73.97;69.75;;;24.70;64.60;;;;;;5053422;28;20029;-86
2022/09/02 10:45:16;;;;;;;51.42;48.38;;;24.70;65.40;;;;;;5041015;28;20048;-85
2022/09/02 10:47:50;;;;;;;65.22;61.90;;;24.80;64.10;;;;;;5075177;28;20033;-86
2022/09/02 10:50:24;;;;;;;59.08;55.72;;;24.70;63.90;;;;;;5020572;28;20072;-86
2022/09/02 10:53:08;;;;;;;65.55;61.80;;;24.60;64.30;;;;;;5037090;28;20477;-85
2022/09/02 10:56:12;;;;;;;50.10;47.40;;;24.80;64.50;;;;;;5052943;28;20033;-86
2022/09/02 10:58:53;;;;;;;41.38;38.97;;;25.10;64.20;;;;;;5052492;28;20052;-86
2022/09/02 11:01:25;;;;;;;42.42;40.05;;;25.30;63.40;;;;;;5037470;28;20051;-86
2022/09/02 11:04:04;;;;;;;41.53;38.97;;;25.40;64.00;;;;;;5036175;28;20060;-86
2022/09/02 11:06:34;;;;;;;38.47;36.28;;;25.50;62.40;;;;;;5052789;28;20025;-86
2022/09/02 11:09:05;;;;;;;35.22;33.20;;;25.50;62.50;;;;;;5052746;28;20370;-87
2022/09/02 11:11:46;;;;;;;44.35;41.83;;;25.80;63.00;;;;;;5052690;28;20478;-86
2022/09/02 11:14:33;;;;;;;29.15;27.52;;;26.00;60.80;;;;;;5052521;28;20119;-86
2022/09/02 11:17:07;;;;;;;32.95;31.02;;;26.00;61.30;;;;;;5052213;28;20032;-87
2022/09/02 11:20:21;;;;;;;37.40;35.38;;;26.30;61.10;;;;;;5052639;28;20033;-87
2022/09/02 11:23:17;;;;;;;42.90;40.22;;;26.70;59.80;;;;;;5052396;28;20053;-87
2022/09/02 11:25:54;;;;;;;37.08;35.08;;;27.00;58.70;;;;;;5052531;28;20382;-87
2022/09/02 11:28:47;;;;;;;35.15;32.83;;;27.00;57.70;;;;;;5021516;28;20038;-87
2022/09/02 11:32:01;;;;;;;27.95;26.15;;;27.10;58.00;;;;;;5021835;28;20401;-87
2022/09/02 11:34:36;;;;;;;32.17;30.30;;;27.20;58.30;;;;;;5010791;28;20042;-87
2022/09/02 11:37:06;;;;;;;33.72;31.73;;;26.80;59.00;;;;;;5011549;28;20053;-87
2022/09/02 11:39:45;;;;;;;39.47;37.15;;;26.80;60.30;;;;;;5027624;28;20383;-87
2022/09/02 11:43:05;;;;;;;70.47;66.10;;;26.30;63.30;;;;;;5027004;28;20415;-87
2022/09/02 11:45:47;;;;;;;56.92;53.58;;;26.20;66.10;;;;;;4989566;28;20507;-88
2022/09/02 11:48:45;;;;;;;64.30;60.83;;;25.90;65.70;;;;;;4975911;28;20053;-88
2022/09/02 11:51:29;;;;;;;54.78;51.67;;;25.60;65.50;;;;;;5007600;28;20415;-88
2022/09/02 11:53:55;;;;;;;64.75;61.15;;;25.50;69.50;;;;;;4991247;28;20049;-87
2022/09/02 11:56:29;;;;;;;52.97;49.85;;;25.30;68.50;;;;;;5007260;28;20054;-87
2022/09/02 11:58:55;;;;;;;68.95;65.15;;;25.20;69.30;;;;;;5007158;28;20026;-87
2022/09/02 12:01:21;;;;;;;66.40;62.78;;;25.40;71.60;;;;;;4990900;28;20046;-87
2022/09/02 12:04:06;;;;;;;75.85;71.68;;;25.70;71.10;;;;;;4991424;28;20045;-88
2022/09/02 12:06:32;;;;;;;64.60;60.95;;;25.90;70.70;;;;;;5007269;28;20396;-88
2022/09/02 12:09:03;;;;;;;72.30;68.43;;;26.10;70.10;;;;;;5003053;28;20118;-87
2022/09/02 12:11:41;;;;;;;67.32;63.67;;;26.00;69.60;;;;;;4984360;28;20054;-87
2022/09/02 12:14:25;;;;;;;66.22;62.25;;;26.00;69.40;;;;;;4985321;28;20031;-88
2022/09/02 12:17:04;;;;;;;75.28;71.22;;;26.30;70.20;;;;;;5008848;28;20038;-87
2022/09/02 12:19:42;;;;;;;65.97;62.50;;;26.20;70.90;;;;;;5032789;28;20493;-87
2022/09/02 12:22:14;;;;;;;67.68;64.07;;;25.90;68.70;;;;;;5000670;28;20080;-87
2022/09/02 12:24:53;;;;;;;72.30;68.40;;;26.20;68.80;;;;;;5032245;28;20034;-87
2022/09/02 12:27:32;;;;;;;48.30;45.65;;;26.30;69.40;;;;;;5017912;28;20045;-87
2022/09/02 12:29:59;;;;;;;54.88;51.92;;;26.20;65.60;;;;;;5047541;28;20025;-88
2022/09/02 12:32:51;;;;;;;55.80;52.83;;;25.90;67.60;;;;;;5031140;28;20049;-87
2022/09/02 12:35:50;;;;;;;46.65;44.05;;;25.70;67.00;;;;;;5009836;28;20030;-88
2022/09/02 12:38:21;;;;;;;47.15;44.53;;;25.90;65.50;;;;;;4965005;28;20042;-88
2022/09/02 12:40:55;;;;;;;54.70;51.95;;;25.80;64.80;;;;;;4961476;28;20049;-87
2022/09/02 12:43:40;;;;;;;63.78;60.55;;;26.10;63.90;;;;;;4994811;28;20034;-87